Terminal Aerodrome Forecast
Issued by NWS

Home | Current Version | Previous Version | Text Only | Print | Product List | Glossary On
Versions: 1 2 3 4 5 6 7 8 9 10 11 12 13 14 15
000
FTUS43 KMPX 202337
TAFRNH
TAF
KRNH 202337Z 2100/2124 29005KT P6SM SKC
     FM210400 00000KT P6SM SKC
     FM211300 10004KT P6SM SKC
     FM211800 13009KT P6SM FEW050 BKN250
     FM212200 14009KT P6SM BKN100=

USA.gov is the U.S. government's official web portal to all federal, state and local government web resources and services.